sensor_id;sensor_type;location;lat;lon;timestamp;P1;durP1;ratioP1;P2;durP2;ratioP2
15110;SDS011;7656;51.954;7.998;2023-07-09T00:01:14;6.47;;;5.35;;
15110;SDS011;7656;51.954;7.998;2023-07-09T00:05:38;6.85;;;5.40;;
15110;SDS011;7656;51.954;7.998;2023-07-09T00:09:59;6.65;;;5.95;;
15110;SDS011;7656;51.954;7.998;2023-07-09T00:14:20;6.88;;;5.50;;
15110;SDS011;7656;51.954;7.998;2023-07-09T00:18:42;6.80;;;5.97;;
15110;SDS011;7656;51.954;7.998;2023-07-09T00:23:03;8.10;;;5.45;;
15110;SDS011;7656;51.954;7.998;2023-07-09T00:27:25;7.25;;;5.88;;
15110;SDS011;7656;51.954;7.998;2023-07-09T00:31:50;6.53;;;5.75;;
15110;SDS011;7656;51.954;7.998;2023-07-09T00:36:28;6.57;;;5.82;;
15110;SDS011;7656;51.954;7.998;2023-07-09T00:41:03;6.50;;;5.82;;
15110;SDS011;7656;51.954;7.998;2023-07-09T00:45:29;6.65;;;5.57;;
15110;SDS011;7656;51.954;7.998;2023-07-09T00:49:56;7.40;;;6.38;;
15110;SDS011;7656;51.954;7.998;2023-07-09T00:54:38;6.97;;;6.35;;
15110;SDS011;7656;51.954;7.998;2023-07-09T00:59:04;7.07;;;6.10;;
15110;SDS011;7656;51.954;7.998;2023-07-09T01:03:35;7.68;;;6.00;;
15110;SDS011;7656;51.954;7.998;2023-07-09T01:08:02;6.57;;;5.95;;
15110;SDS011;7656;51.954;7.998;2023-07-09T01:12:25;7.43;;;6.63;;
15110;SDS011;7656;51.954;7.998;2023-07-09T01:16:47;6.97;;;6.28;;
15110;SDS011;7656;51.954;7.998;2023-07-09T01:21:17;11.25;;;6.60;;
15110;SDS011;7656;51.954;7.998;2023-07-09T01:25:46;9.50;;;6.40;;
15110;SDS011;7656;51.954;7.998;2023-07-09T01:30:19;7.72;;;6.25;;
15110;SDS011;7656;51.954;7.998;2023-07-09T01:34:57;9.43;;;6.32;;
15110;SDS011;7656;51.954;7.998;2023-07-09T01:39:28;9.27;;;6.68;;
15110;SDS011;7656;51.954;7.998;2023-07-09T01:43:49;9.60;;;6.22;;
15110;SDS011;7656;51.954;7.998;2023-07-09T01:48:10;6.95;;;6.25;;
15110;SDS011;7656;51.954;7.998;2023-07-09T01:52:37;9.32;;;6.38;;
15110;SDS011;7656;51.954;7.998;2023-07-09T01:57:12;7.05;;;5.95;;
15110;SDS011;7656;51.954;7.998;2023-07-09T02:01:46;7.95;;;6.00;;
15110;SDS011;7656;51.954;7.998;2023-07-09T02:06:07;8.65;;;6.22;;
15110;SDS011;7656;51.954;7.998;2023-07-09T02:10:29;6.55;;;5.72;;
15110;SDS011;7656;51.954;7.998;2023-07-09T02:14:50;7.40;;;6.65;;
15110;SDS011;7656;51.954;7.998;2023-07-09T02:19:11;9.38;;;6.60;;
15110;SDS011;7656;51.954;7.998;2023-07-09T02:23:32;7.97;;;6.63;;
15110;SDS011;7656;51.954;7.998;2023-07-09T02:27:53;7.75;;;6.95;;
15110;SDS011;7656;51.954;7.998;2023-07-09T02:32:17;7.93;;;7.07;;
15110;SDS011;7656;51.954;7.998;2023-07-09T02:36:58;8.02;;;6.43;;
15110;SDS011;7656;51.954;7.998;2023-07-09T02:41:20;7.15;;;6.45;;
15110;SDS011;7656;51.954;7.998;2023-07-09T02:45:41;9.07;;;6.28;;
15110;SDS011;7656;51.954;7.998;2023-07-09T02:50:02;9.13;;;6.63;;
15110;SDS011;7656;51.954;7.998;2023-07-09T02:54:24;7.63;;;6.13;;
15110;SDS011;7656;51.954;7.998;2023-07-09T02:58:46;10.45;;;7.40;;
15110;SDS011;7656;51.954;7.998;2023-07-09T03:03:07;8.30;;;6.80;;
15110;SDS011;7656;51.954;7.998;2023-07-09T03:07:28;7.93;;;6.72;;
15110;SDS011;7656;51.954;7.998;2023-07-09T03:11:49;7.60;;;6.57;;
15110;SDS011;7656;51.954;7.998;2023-07-09T03:16:11;7.35;;;6.30;;
15110;SDS011;7656;51.954;7.998;2023-07-09T03:20:33;8.13;;;6.90;;
15110;SDS011;7656;51.954;7.998;2023-07-09T03:24:54;8.23;;;6.40;;
15110;SDS011;7656;51.954;7.998;2023-07-09T03:29:15;8.65;;;6.75;;
15110;SDS011;7656;51.954;7.998;2023-07-09T03:33:36;7.80;;;7.00;;
15110;SDS011;7656;51.954;7.998;2023-07-09T03:37:57;7.50;;;6.80;;
15110;SDS011;7656;51.954;7.998;2023-07-09T03:42:18;8.18;;;7.32;;
15110;SDS011;7656;51.954;7.998;2023-07-09T03:46:39;6.95;;;6.35;;
15110;SDS011;7656;51.954;7.998;2023-07-09T03:51:00;9.52;;;6.78;;
15110;SDS011;7656;51.954;7.998;2023-07-09T03:55:21;7.63;;;6.88;;
15110;SDS011;7656;51.954;7.998;2023-07-09T03:59:46;9.55;;;6.35;;
15110;SDS011;7656;51.954;7.998;2023-07-09T04:04:07;8.02;;;6.82;;
15110;SDS011;7656;51.954;7.998;2023-07-09T04:08:28;7.37;;;6.37;;
15110;SDS011;7656;51.954;7.998;2023-07-09T04:12:50;7.63;;;6.88;;
15110;SDS011;7656;51.954;7.998;2023-07-09T04:17:11;7.80;;;7.10;;
15110;SDS011;7656;51.954;7.998;2023-07-09T04:21:32;8.30;;;7.00;;
15110;SDS011;7656;51.954;7.998;2023-07-09T04:25:53;8.87;;;6.60;;
15110;SDS011;7656;51.954;7.998;2023-07-09T04:30:14;7.93;;;7.22;;
15110;SDS011;7656;51.954;7.998;2023-07-09T04:34:35;7.97;;;7.22;;
15110;SDS011;7656;51.954;7.998;2023-07-09T04:38:57;9.65;;;8.02;;
15110;SDS011;7656;51.954;7.998;2023-07-09T04:43:18;10.10;;;7.35;;
15110;SDS011;7656;51.954;7.998;2023-07-09T04:47:39;11.25;;;7.45;;
15110;SDS011;7656;51.954;7.998;2023-07-09T04:52:00;9.00;;;7.25;;
15110;SDS011;7656;51.954;7.998;2023-07-09T04:56:21;7.53;;;6.82;;
15110;SDS011;7656;51.954;7.998;2023-07-09T05:00:43;9.60;;;7.10;;
15110;SDS011;7656;51.954;7.998;2023-07-09T05:05:04;9.77;;;7.25;;
15110;SDS011;7656;51.954;7.998;2023-07-09T05:09:26;8.50;;;7.60;;
15110;SDS011;7656;51.954;7.998;2023-07-09T05:13:47;9.00;;;8.15;;
15110;SDS011;7656;51.954;7.998;2023-07-09T05:18:08;8.00;;;7.15;;
15110;SDS011;7656;51.954;7.998;2023-07-09T05:22:29;8.40;;;7.57;;
15110;SDS011;7656;51.954;7.998;2023-07-09T05:26:50;8.45;;;7.60;;
15110;SDS011;7656;51.954;7.998;2023-07-09T05:31:11;10.23;;;8.80;;
15110;SDS011;7656;51.954;7.998;2023-07-09T05:35:32;9.48;;;8.50;;
15110;SDS011;7656;51.954;7.998;2023-07-09T05:39:54;10.45;;;8.25;;
15110;SDS011;7656;51.954;7.998;2023-07-09T05:44:15;9.13;;;8.20;;
15110;SDS011;7656;51.954;7.998;2023-07-09T05:48:36;9.80;;;7.45;;
15110;SDS011;7656;51.954;7.998;2023-07-09T05:52:57;8.38;;;7.20;;
15110;SDS011;7656;51.954;7.998;2023-07-09T05:57:18;9.85;;;6.75;;
15110;SDS011;7656;51.954;7.998;2023-07-09T06:01:39;8.68;;;7.22;;
15110;SDS011;7656;51.954;7.998;2023-07-09T06:06:00;9.18;;;6.93;;
15110;SDS011;7656;51.954;7.998;2023-07-09T06:10:21;10.77;;;7.65;;
15110;SDS011;7656;51.954;7.998;2023-07-09T06:14:42;9.88;;;8.20;;
15110;SDS011;7656;51.954;7.998;2023-07-09T06:19:03;8.43;;;7.18;;
15110;SDS011;7656;51.954;7.998;2023-07-09T06:23:24;9.00;;;6.93;;
15110;SDS011;7656;51.954;7.998;2023-07-09T06:27:46;8.63;;;6.65;;
15110;SDS011;7656;51.954;7.998;2023-07-09T06:32:07;7.15;;;6.40;;
15110;SDS011;7656;51.954;7.998;2023-07-09T06:36:28;9.27;;;7.00;;
15110;SDS011;7656;51.954;7.998;2023-07-09T06:40:49;11.15;;;6.63;;
15110;SDS011;7656;51.954;7.998;2023-07-09T06:45:11;8.85;;;6.65;;
15110;SDS011;7656;51.954;7.998;2023-07-09T06:49:32;8.57;;;6.60;;
15110;SDS011;7656;51.954;7.998;2023-07-09T06:53:53;8.18;;;6.05;;
15110;SDS011;7656;51.954;7.998;2023-07-09T06:58:15;7.43;;;6.63;;
15110;SDS011;7656;51.954;7.998;2023-07-09T07:02:37;6.75;;;5.95;;
15110;SDS011;7656;51.954;7.998;2023-07-09T07:06:58;6.43;;;5.78;;
15110;SDS011;7656;51.954;7.998;2023-07-09T07:11:20;6.28;;;5.68;;
15110;SDS011;7656;51.954;7.998;2023-07-09T07:15:44;8.27;;;6.18;;
15110;SDS011;7656;51.954;7.998;2023-07-09T07:20:10;6.65;;;5.95;;
15110;SDS011;7656;51.954;7.998;2023-07-09T07:24:33;7.15;;;6.45;;
15110;SDS011;7656;51.954;7.998;2023-07-09T07:28:54;7.35;;;6.63;;
15110;SDS011;7656;51.954;7.998;2023-07-09T07:33:15;7.15;;;6.43;;
15110;SDS011;7656;51.954;7.998;2023-07-09T07:37:36;6.72;;;6.05;;
15110;SDS011;7656;51.954;7.998;2023-07-09T07:41:57;6.30;;;5.70;;
15110;SDS011;7656;51.954;7.998;2023-07-09T07:46:18;7.90;;;6.40;;
15110;SDS011;7656;51.954;7.998;2023-07-09T07:50:39;6.65;;;6.05;;
15110;SDS011;7656;51.954;7.998;2023-07-09T07:55:01;6.35;;;5.75;;
15110;SDS011;7656;51.954;7.998;2023-07-09T07:59:23;6.22;;;5.75;;
15110;SDS011;7656;51.954;7.998;2023-07-09T08:03:45;6.07;;;5.60;;
15110;SDS011;7656;51.954;7.998;2023-07-09T08:08:06;5.80;;;5.40;;
15110;SDS011;7656;51.954;7.998;2023-07-09T08:12:27;6.55;;;5.95;;
15110;SDS011;7656;51.954;7.998;2023-07-09T08:16:48;7.95;;;6.15;;
15110;SDS011;7656;51.954;7.998;2023-07-09T08:21:09;6.72;;;5.53;;
15110;SDS011;7656;51.954;7.998;2023-07-09T08:25:30;6.25;;;5.72;;
15110;SDS011;7656;51.954;7.998;2023-07-09T08:29:52;5.68;;;5.28;;
15110;SDS011;7656;51.954;7.998;2023-07-09T08:34:13;7.22;;;5.80;;
15110;SDS011;7656;51.954;7.998;2023-07-09T08:38:34;6.10;;;5.53;;
15110;SDS011;7656;51.954;7.998;2023-07-09T08:42:58;5.57;;;5.07;;
15110;SDS011;7656;51.954;7.998;2023-07-09T08:52:28;6.03;;;5.40;;
15110;SDS011;7656;51.954;7.998;2023-07-09T08:57:08;10.88;;;5.35;;
15110;SDS011;7656;51.954;7.998;2023-07-09T09:01:59;5.70;;;5.18;;
15110;SDS011;7656;51.954;7.998;2023-07-09T09:06:27;5.32;;;4.82;;
15110;SDS011;7656;51.954;7.998;2023-07-09T09:10:53;6.35;;;5.03;;
15110;SDS011;7656;51.954;7.998;2023-07-09T09:15:20;8.38;;;5.18;;
15110;SDS011;7656;51.954;7.998;2023-07-09T09:19:54;8.20;;;5.20;;
15110;SDS011;7656;51.954;7.998;2023-07-09T09:24:32;5.78;;;4.72;;
15110;SDS011;7656;51.954;7.998;2023-07-09T09:29:18;5.47;;;4.93;;
15110;SDS011;7656;51.954;7.998;2023-07-09T09:33:43;5.40;;;4.70;;
15110;SDS011;7656;51.954;7.998;2023-07-09T09:38:10;5.63;;;5.05;;
15110;SDS011;7656;51.954;7.998;2023-07-09T09:42:42;5.40;;;4.72;;
15110;SDS011;7656;51.954;7.998;2023-07-09T09:47:03;5.47;;;4.75;;
15110;SDS011;7656;51.954;7.998;2023-07-09T09:51:26;5.90;;;4.38;;
15110;SDS011;7656;51.954;7.998;2023-07-09T09:55:48;4.97;;;4.57;;
15110;SDS011;7656;51.954;7.998;2023-07-09T10:00:13;5.20;;;4.35;;
15110;SDS011;7656;51.954;7.998;2023-07-09T10:04:36;10.02;;;5.00;;
15110;SDS011;7656;51.954;7.998;2023-07-09T10:13:47;7.18;;;4.70;;
15110;SDS011;7656;51.954;7.998;2023-07-09T10:28:00;7.50;;;4.68;;
15110;SDS011;7656;51.954;7.998;2023-07-09T10:47:13;4.45;;;4.05;;
15110;SDS011;7656;51.954;7.998;2023-07-09T10:51:52;5.57;;;4.60;;
15110;SDS011;7656;51.954;7.998;2023-07-09T10:56:24;6.55;;;4.53;;
15110;SDS011;7656;51.954;7.998;2023-07-09T11:00:48;5.47;;;4.85;;
15110;SDS011;7656;51.954;7.998;2023-07-09T11:05:10;6.50;;;4.60;;
15110;SDS011;7656;51.954;7.998;2023-07-09T11:09:32;4.85;;;4.38;;
15110;SDS011;7656;51.954;7.998;2023-07-09T11:13:58;5.90;;;4.65;;
15110;SDS011;7656;51.954;7.998;2023-07-09T11:18:30;5.53;;;4.45;;
15110;SDS011;7656;51.954;7.998;2023-07-09T11:22:59;4.85;;;4.45;;
15110;SDS011;7656;51.954;7.998;2023-07-09T11:27:27;6.68;;;4.90;;
15110;SDS011;7656;51.954;7.998;2023-07-09T11:31:49;5.10;;;4.60;;
15110;SDS011;7656;51.954;7.998;2023-07-09T11:36:12;6.60;;;4.60;;
15110;SDS011;7656;51.954;7.998;2023-07-09T11:40:36;5.18;;;4.78;;
15110;SDS011;7656;51.954;7.998;2023-07-09T11:45:11;4.95;;;4.47;;
15110;SDS011;7656;51.954;7.998;2023-07-09T11:49:41;4.22;;;3.83;;
15110;SDS011;7656;51.954;7.998;2023-07-09T11:54:10;5.43;;;4.60;;
15110;SDS011;7656;51.954;7.998;2023-07-09T11:58:35;5.13;;;4.63;;
15110;SDS011;7656;51.954;7.998;2023-07-09T12:02:56;10.48;;;4.85;;
15110;SDS011;7656;51.954;7.998;2023-07-09T12:07:18;6.10;;;4.80;;
15110;SDS011;7656;51.954;7.998;2023-07-09T12:11:44;9.82;;;5.22;;
15110;SDS011;7656;51.954;7.998;2023-07-09T12:20:49;7.28;;;4.30;;
15110;SDS011;7656;51.954;7.998;2023-07-09T12:25:21;6.13;;;4.15;;
15110;SDS011;7656;51.954;7.998;2023-07-09T12:29:45;6.57;;;3.97;;
15110;SDS011;7656;51.954;7.998;2023-07-09T12:34:10;5.35;;;4.60;;
15110;SDS011;7656;51.954;7.998;2023-07-09T12:38:40;10.85;;;4.65;;
15110;SDS011;7656;51.954;7.998;2023-07-09T12:43:04;5.82;;;4.68;;
15110;SDS011;7656;51.954;7.998;2023-07-09T12:47:25;12.60;;;5.03;;
15110;SDS011;7656;51.954;7.998;2023-07-09T12:51:46;5.75;;;4.63;;
15110;SDS011;7656;51.954;7.998;2023-07-09T12:56:11;6.07;;;4.55;;
15110;SDS011;7656;51.954;7.998;2023-07-09T13:00:34;4.35;;;3.95;;
15110;SDS011;7656;51.954;7.998;2023-07-09T13:05:02;6.95;;;4.72;;
15110;SDS011;7656;51.954;7.998;2023-07-09T13:09:27;6.93;;;4.38;;
15110;SDS011;7656;51.954;7.998;2023-07-09T13:13:59;4.55;;;3.85;;
15110;SDS011;7656;51.954;7.998;2023-07-09T13:18:25;5.57;;;4.32;;
15110;SDS011;7656;51.954;7.998;2023-07-09T13:22:46;7.20;;;4.38;;
15110;SDS011;7656;51.954;7.998;2023-07-09T13:27:08;7.03;;;4.00;;
15110;SDS011;7656;51.954;7.998;2023-07-09T13:31:34;5.57;;;3.95;;
15110;SDS011;7656;51.954;7.998;2023-07-09T13:35:55;4.53;;;3.67;;
15110;SDS011;7656;51.954;7.998;2023-07-09T13:40:17;8.60;;;4.15;;
15110;SDS011;7656;51.954;7.998;2023-07-09T13:44:39;5.70;;;4.30;;
15110;SDS011;7656;51.954;7.998;2023-07-09T13:49:02;5.57;;;3.90;;
15110;SDS011;7656;51.954;7.998;2023-07-09T13:53:26;5.50;;;4.30;;
15110;SDS011;7656;51.954;7.998;2023-07-09T13:57:51;4.95;;;3.70;;
15110;SDS011;7656;51.954;7.998;2023-07-09T14:02:27;6.10;;;3.97;;
15110;SDS011;7656;51.954;7.998;2023-07-09T14:06:52;7.03;;;4.03;;
15110;SDS011;7656;51.954;7.998;2023-07-09T14:11:14;9.13;;;3.78;;
15110;SDS011;7656;51.954;7.998;2023-07-09T14:15:37;5.95;;;4.32;;
15110;SDS011;7656;51.954;7.998;2023-07-09T14:19:58;4.15;;;3.78;;
15110;SDS011;7656;51.954;7.998;2023-07-09T14:24:21;4.18;;;3.78;;
15110;SDS011;7656;51.954;7.998;2023-07-09T14:28:47;4.93;;;3.72;;
15110;SDS011;7656;51.954;7.998;2023-07-09T14:33:11;5.15;;;3.72;;
15110;SDS011;7656;51.954;7.998;2023-07-09T14:37:40;4.28;;;3.88;;
15110;SDS011;7656;51.954;7.998;2023-07-09T14:42:02;4.75;;;3.70;;
15110;SDS011;7656;51.954;7.998;2023-07-09T14:46:23;6.65;;;4.22;;
15110;SDS011;7656;51.954;7.998;2023-07-09T14:50:45;4.63;;;3.50;;
15110;SDS011;7656;51.954;7.998;2023-07-09T14:55:12;5.40;;;4.10;;
15110;SDS011;7656;51.954;7.998;2023-07-09T14:59:35;7.00;;;4.10;;
15110;SDS011;7656;51.954;7.998;2023-07-09T15:03:56;6.03;;;3.95;;
15110;SDS011;7656;51.954;7.998;2023-07-09T15:08:18;7.18;;;3.95;;
15110;SDS011;7656;51.954;7.998;2023-07-09T15:12:44;6.03;;;3.80;;
15110;SDS011;7656;51.954;7.998;2023-07-09T15:17:07;10.10;;;4.10;;
15110;SDS011;7656;51.954;7.998;2023-07-09T15:21:31;6.57;;;4.20;;
15110;SDS011;7656;51.954;7.998;2023-07-09T15:25:52;6.13;;;3.75;;
15110;SDS011;7656;51.954;7.998;2023-07-09T15:30:24;6.63;;;3.70;;
15110;SDS011;7656;51.954;7.998;2023-07-09T15:34:49;4.85;;;3.90;;
15110;SDS011;7656;51.954;7.998;2023-07-09T15:39:10;4.32;;;3.92;;
15110;SDS011;7656;51.954;7.998;2023-07-09T15:43:32;6.57;;;3.80;;
15110;SDS011;7656;51.954;7.998;2023-07-09T15:47:53;6.55;;;4.10;;
15110;SDS011;7656;51.954;7.998;2023-07-09T15:52:14;6.88;;;3.92;;
15110;SDS011;7656;51.954;7.998;2023-07-09T15:56:35;6.13;;;4.03;;
15110;SDS011;7656;51.954;7.998;2023-07-09T16:00:57;8.73;;;3.88;;
15110;SDS011;7656;51.954;7.998;2023-07-09T16:05:20;5.10;;;4.00;;
15110;SDS011;7656;51.954;7.998;2023-07-09T16:09:49;9.27;;;4.70;;
15110;SDS011;7656;51.954;7.998;2023-07-09T16:14:15;10.20;;;4.40;;
15110;SDS011;7656;51.954;7.998;2023-07-09T16:18:40;13.13;;;4.32;;
15110;SDS011;7656;51.954;7.998;2023-07-09T16:23:01;4.28;;;3.60;;
15110;SDS011;7656;51.954;7.998;2023-07-09T16:27:23;9.63;;;3.72;;
15110;SDS011;7656;51.954;7.998;2023-07-09T16:31:44;5.88;;;3.28;;
15110;SDS011;7656;51.954;7.998;2023-07-09T16:36:08;4.70;;;3.70;;
15110;SDS011;7656;51.954;7.998;2023-07-09T16:40:34;4.57;;;3.55;;
15110;SDS011;7656;51.954;7.998;2023-07-09T16:44:55;5.78;;;3.65;;
15110;SDS011;7656;51.954;7.998;2023-07-09T16:49:22;9.65;;;4.07;;
15110;SDS011;7656;51.954;7.998;2023-07-09T16:53:53;6.78;;;3.78;;
15110;SDS011;7656;51.954;7.998;2023-07-09T17:02:53;6.40;;;4.38;;
15110;SDS011;7656;51.954;7.998;2023-07-09T17:07:15;4.95;;;3.60;;
15110;SDS011;7656;51.954;7.998;2023-07-09T17:11:36;5.13;;;3.28;;
15110;SDS011;7656;51.954;7.998;2023-07-09T17:15:57;6.63;;;3.50;;
15110;SDS011;7656;51.954;7.998;2023-07-09T17:20:18;3.85;;;3.55;;
15110;SDS011;7656;51.954;7.998;2023-07-09T17:24:39;4.80;;;3.67;;
15110;SDS011;7656;51.954;7.998;2023-07-09T17:29:00;5.68;;;3.60;;
15110;SDS011;7656;51.954;7.998;2023-07-09T17:33:21;3.70;;;3.40;;
15110;SDS011;7656;51.954;7.998;2023-07-09T17:37:44;3.72;;;3.42;;
15110;SDS011;7656;51.954;7.998;2023-07-09T17:42:12;5.75;;;3.80;;
15110;SDS011;7656;51.954;7.998;2023-07-09T17:46:35;7.28;;;4.32;;
15110;SDS011;7656;51.954;7.998;2023-07-09T17:50:56;4.72;;;3.63;;
15110;SDS011;7656;51.954;7.998;2023-07-09T17:55:17;3.80;;;3.38;;
15110;SDS011;7656;51.954;7.998;2023-07-09T17:59:39;6.13;;;3.45;;
15110;SDS011;7656;51.954;7.998;2023-07-09T18:04:01;5.50;;;3.40;;
15110;SDS011;7656;51.954;7.998;2023-07-09T18:08:22;4.25;;;3.53;;
15110;SDS011;7656;51.954;7.998;2023-07-09T18:12:44;4.82;;;3.78;;
15110;SDS011;7656;51.954;7.998;2023-07-09T18:17:09;6.20;;;3.00;;
15110;SDS011;7656;51.954;7.998;2023-07-09T18:21:36;3.63;;;3.33;;
15110;SDS011;7656;51.954;7.998;2023-07-09T18:25:57;4.68;;;3.90;;
15110;SDS011;7656;51.954;7.998;2023-07-09T18:34:46;5.38;;;4.00;;
15110;SDS011;7656;51.954;7.998;2023-07-09T18:39:08;5.70;;;3.88;;
15110;SDS011;7656;51.954;7.998;2023-07-09T18:43:30;7.03;;;4.22;;
15110;SDS011;7656;51.954;7.998;2023-07-09T18:47:51;4.43;;;3.65;;
15110;SDS011;7656;51.954;7.998;2023-07-09T18:52:21;5.07;;;4.57;;
15110;SDS011;7656;51.954;7.998;2023-07-09T18:56:45;4.43;;;4.03;;
15110;SDS011;7656;51.954;7.998;2023-07-09T19:01:15;6.65;;;4.45;;
15110;SDS011;7656;51.954;7.998;2023-07-09T19:05:45;5.80;;;4.53;;
15110;SDS011;7656;51.954;7.998;2023-07-09T19:10:12;5.28;;;4.45;;
15110;SDS011;7656;51.954;7.998;2023-07-09T19:14:48;6.82;;;3.88;;
15110;SDS011;7656;51.954;7.998;2023-07-09T19:19:11;6.10;;;3.88;;
15110;SDS011;7656;51.954;7.998;2023-07-09T19:23:42;4.35;;;3.90;;
15110;SDS011;7656;51.954;7.998;2023-07-09T19:28:03;6.03;;;4.18;;
15110;SDS011;7656;51.954;7.998;2023-07-09T19:32:25;5.63;;;4.10;;
15110;SDS011;7656;51.954;7.998;2023-07-09T19:36:48;4.35;;;3.95;;
15110;SDS011;7656;51.954;7.998;2023-07-09T19:41:13;5.78;;;4.00;;
15110;SDS011;7656;51.954;7.998;2023-07-09T19:45:36;4.95;;;4.22;;
15110;SDS011;7656;51.954;7.998;2023-07-09T19:50:01;4.95;;;3.85;;
15110;SDS011;7656;51.954;7.998;2023-07-09T19:54:51;6.03;;;4.15;;
15110;SDS011;7656;51.954;7.998;2023-07-09T19:59:13;3.65;;;3.35;;
15110;SDS011;7656;51.954;7.998;2023-07-09T20:03:34;4.85;;;4.45;;
15110;SDS011;7656;51.954;7.998;2023-07-09T20:08:00;4.32;;;3.63;;
15110;SDS011;7656;51.954;7.998;2023-07-09T20:12:32;5.22;;;3.75;;
15110;SDS011;7656;51.954;7.998;2023-07-09T20:16:54;4.65;;;4.10;;
15110;SDS011;7656;51.954;7.998;2023-07-09T20:21:16;10.43;;;7.20;;
15110;SDS011;7656;51.954;7.998;2023-07-09T20:25:41;7.45;;;4.95;;
15110;SDS011;7656;51.954;7.998;2023-07-09T20:30:02;6.03;;;3.80;;
15110;SDS011;7656;51.954;7.998;2023-07-09T20:34:23;4.20;;;3.80;;
15110;SDS011;7656;51.954;7.998;2023-07-09T20:38:46;4.93;;;4.25;;
15110;SDS011;7656;51.954;7.998;2023-07-09T20:43:09;4.93;;;3.92;;
15110;SDS011;7656;51.954;7.998;2023-07-09T20:47:44;5.32;;;3.83;;
15110;SDS011;7656;51.954;7.998;2023-07-09T20:52:06;4.88;;;3.90;;
15110;SDS011;7656;51.954;7.998;2023-07-09T20:56:33;4.60;;;4.10;;
15110;SDS011;7656;51.954;7.998;2023-07-09T21:00:55;5.22;;;4.72;;
15110;SDS011;7656;51.954;7.998;2023-07-09T21:05:16;4.90;;;4.35;;
15110;SDS011;7656;51.954;7.998;2023-07-09T21:09:39;7.45;;;5.15;;
15110;SDS011;7656;51.954;7.998;2023-07-09T21:14:00;6.28;;;4.90;;
15110;SDS011;7656;51.954;7.998;2023-07-09T21:18:22;5.88;;;5.20;;
15110;SDS011;7656;51.954;7.998;2023-07-09T21:22:52;6.22;;;5.63;;
15110;SDS011;7656;51.954;7.998;2023-07-09T21:27:13;5.20;;;4.68;;
15110;SDS011;7656;51.954;7.998;2023-07-09T21:31:34;5.53;;;4.57;;
15110;SDS011;7656;51.954;7.998;2023-07-09T21:35:55;6.05;;;5.00;;
15110;SDS011;7656;51.954;7.998;2023-07-09T21:44:55;7.22;;;4.63;;
15110;SDS011;7656;51.954;7.998;2023-07-09T21:49:17;7.38;;;5.65;;
15110;SDS011;7656;51.954;7.998;2023-07-09T21:53:47;6.65;;;5.15;;
15110;SDS011;7656;51.954;7.998;2023-07-09T21:58:08;6.88;;;5.45;;
15110;SDS011;7656;51.954;7.998;2023-07-09T22:02:29;5.80;;;5.25;;
15110;SDS011;7656;51.954;7.998;2023-07-09T22:06:51;6.13;;;5.03;;
15110;SDS011;7656;51.954;7.998;2023-07-09T22:11:17;7.72;;;5.72;;
15110;SDS011;7656;51.954;7.998;2023-07-09T22:15:50;7.00;;;5.57;;
15110;SDS011;7656;51.954;7.998;2023-07-09T22:20:12;6.72;;;5.68;;
15110;SDS011;7656;51.954;7.998;2023-07-09T22:24:33;6.70;;;5.32;;
15110;SDS011;7656;51.954;7.998;2023-07-09T22:28:56;8.52;;;5.00;;
15110;SDS011;7656;51.954;7.998;2023-07-09T22:33:19;6.68;;;5.28;;
15110;SDS011;7656;51.954;7.998;2023-07-09T22:37:40;6.72;;;5.72;;
15110;SDS011;7656;51.954;7.998;2023-07-09T22:42:03;6.15;;;5.55;;
15110;SDS011;7656;51.954;7.998;2023-07-09T22:46:25;6.03;;;5.00;;
15110;SDS011;7656;51.954;7.998;2023-07-09T22:50:46;7.95;;;5.88;;
15110;SDS011;7656;51.954;7.998;2023-07-09T22:59:56;7.40;;;5.75;;
15110;SDS011;7656;51.954;7.998;2023-07-09T23:04:17;7.22;;;5.80;;
15110;SDS011;7656;51.954;7.998;2023-07-09T23:08:38;8.68;;;6.75;;
15110;SDS011;7656;51.954;7.998;2023-07-09T23:13:00;11.20;;;6.75;;
15110;SDS011;7656;51.954;7.998;2023-07-09T23:17:21;8.43;;;5.63;;
15110;SDS011;7656;51.954;7.998;2023-07-09T23:21:42;8.70;;;5.75;;
15110;SDS011;7656;51.954;7.998;2023-07-09T23:26:03;7.70;;;6.22;;
15110;SDS011;7656;51.954;7.998;2023-07-09T23:30:26;6.80;;;5.90;;
15110;SDS011;7656;51.954;7.998;2023-07-09T23:34:50;8.75;;;6.82;;
15110;SDS011;7656;51.954;7.998;2023-07-09T23:39:12;7.60;;;6.80;;
15110;SDS011;7656;51.954;7.998;2023-07-09T23:43:35;8.25;;;6.43;;
15110;SDS011;7656;51.954;7.998;2023-07-09T23:48:00;7.43;;;5.60;;
15110;SDS011;7656;51.954;7.998;2023-07-09T23:52:24;9.70;;;6.60;;
15110;SDS011;7656;51.954;7.998;2023-07-09T23:56:46;12.10;;;8.10;;
